TAF AMD LDZA 052005Z 0520/0618 02005KT 9999 BKN030
                     TX24/0613Z TN16/0603Z
        PROB40 TEMPO 0520/0608 RA BKN014
        PROB30 TEMPO 0522/0604 4000 TSRA SCT020 FEW030CB OVC035
               BECMG 0603/0605 02010KT=
TAF LDZA 051725Z 0518/0618 02012KT 9999 BKN030
                 TX23/0613Z TN16/0603Z
    PROB40 TEMPO 0518/0608 RA BKN014
    PROB30 TEMPO 0522/0604 4000 TSRA SCT020 FEW030CB OVC035=
TAF LDZA 051125Z 0512/0612 02012KT 9999 BKN030
                 TX22/0611Z TN15/0603Z
           TEMPO 0512/0606 03015G25KT
    PROB40 TEMPO 0512/0608 4000 RA BKN014
    PROB30 TEMPO 0520/0604 TSRA SCT020 FEW030CB OVC035=
TAF LDZA 050525Z 0506/0606 04007KT 9999 BKN030
                 TX19/0512Z TN15/0506Z
    PROB30 TEMPO 0506/0606 04015G25KT
    PROB40 TEMPO 0512/0606 4000 RA BKN014
    PROB30 TEMPO 0518/0521 TSRA SCT020 FEW030CB BKN040
    PROB30 TEMPO 0603/0606 TSRA SCT020 FEW030CB BKN040=
TAF LDZA 042325Z 0500/0600 04009KT 9999 BKN030
                 TX19/0512Z TN14/0503Z
           TEMPO 0500/0600 04015G25KT RA BKN014
    PROB30 TEMPO 0506/0600 TSRA SCT020 FEW030CB BKN040=
TAF LDZA 041725Z 0418/0518 04014KT CAVOK
                 TX21/0512Z TN15/0504Z
    PROB30 TEMPO 0418/0421 4000 TSRA FEW025CB
    PROB30 TEMPO 0419/0518 04020G30KT
           TEMPO 0506/0512 RA BKN014=
TAF LDZA 041125Z 0412/0512 06008KT 9999 SCT040
                 TX28/0412Z TN15/0504Z
    PROB40 TEMPO 0412/0502 TSRA FEW025CB BKN030
    PROB30 TEMPO 0414/0418 23020G30KT 2000 TSGR SCT025CB BKN030
           BECMG 0416/0418 04014KT
           TEMPO 0502/0510 4000 RA BKN014=